createdAt,value
2022-09-25T00:02:53.868Z,82.60
2022-09-25T00:07:59.746Z,82.65
2022-09-25T00:13:05.757Z,82.75
2022-09-25T00:18:11.809Z,82.84
2022-09-25T00:23:17.840Z,82.84
2022-09-25T00:28:23.709Z,82.73
2022-09-25T00:33:29.617Z,82.72
2022-09-25T00:38:36.913Z,82.79
2022-09-25T00:43:45.647Z,82.97
2022-09-25T00:48:55.235Z,83.12
2022-09-25T00:54:04.640Z,83.07
2022-09-25T00:59:14.205Z,83.13
2022-09-25T01:04:22.654Z,83.41
2022-09-25T01:09:28.905Z,83.62
2022-09-25T01:14:35.428Z,83.53
2022-09-25T01:19:54.878Z,83.48
2022-09-25T01:25:12.233Z,83.49
2022-09-25T01:30:20.242Z,83.72
2022-09-25T01:35:43.051Z,84.10
2022-09-25T01:40:53.573Z,84.29
2022-09-25T01:46:03.571Z,84.34
2022-09-25T01:51:16.178Z,84.46
2022-09-25T01:56:31.561Z,84.59
2022-09-25T02:01:41.200Z,84.63
2022-09-25T02:06:50.362Z,84.62
2022-09-25T02:12:00.167Z,84.58
2022-09-25T02:17:10.746Z,84.57
2022-09-25T02:22:20.054Z,84.57
2022-09-25T02:27:29.396Z,84.54
2022-09-25T02:32:35.276Z,84.67
2022-09-25T02:37:41.286Z,84.74
2022-09-25T02:42:53.139Z,84.80
2022-09-25T02:48:08.631Z,84.97
2022-09-25T02:53:19.705Z,84.99
2022-09-25T02:58:31.479Z,85.00
2022-09-25T03:03:40.099Z,85.13
2022-09-25T03:08:52.098Z,85.16
2022-09-25T03:14:00.764Z,85.16
2022-09-25T03:19:07.086Z,85.31
2022-09-25T03:24:13.015Z,85.46
2022-09-25T03:29:19.237Z,85.60
2022-09-25T03:34:25.113Z,85.84
2022-09-25T03:39:30.910Z,85.82
2022-09-25T03:44:36.919Z,85.63
2022-09-25T03:49:42.554Z,85.55
2022-09-25T03:54:48.588Z,85.43
2022-09-25T03:59:54.505Z,85.23
2022-09-25T04:05:00.186Z,85.42
2022-09-25T04:10:06.879Z,85.69
2022-09-25T04:15:13.275Z,85.92
2022-09-25T04:20:19.614Z,85.89
2022-09-25T04:25:25.944Z,85.89
2022-09-25T04:30:32.337Z,85.83
2022-09-25T04:35:38.263Z,85.98
2022-09-25T04:40:46.042Z,86.27
2022-09-25T04:45:52.112Z,86.33
2022-09-25T04:50:58.292Z,86.39
2022-09-25T04:56:12.187Z,86.44
2022-09-25T05:01:21.491Z,86.18
2022-09-25T05:06:27.573Z,85.90
2022-09-25T05:11:33.608Z,85.74
2022-09-25T05:16:39.421Z,85.59
2022-09-25T05:21:45.362Z,85.41
2022-09-25T05:26:51.501Z,85.26
2022-09-25T05:31:57.249Z,85.19
2022-09-25T05:37:03.490Z,84.80
2022-09-25T05:42:09.289Z,84.44
2022-09-25T05:47:15.473Z,84.26
2022-09-25T05:52:21.566Z,84.15
2022-09-25T05:57:28.425Z,83.64
2022-09-25T06:02:34.190Z,83.07
2022-09-25T06:07:40.063Z,82.33
2022-09-25T06:12:45.922Z,81.01
2022-09-25T06:17:51.656Z,79.17
2022-09-25T06:22:58.772Z,76.93
2022-09-25T06:28:06.280Z,72.24
2022-09-25T06:33:14.299Z,66.63
2022-09-25T06:38:20.218Z,59.77
2022-09-25T06:43:25.999Z,54.75
2022-09-25T06:48:32.257Z,48.73
2022-09-25T06:53:38.273Z,44.31
2022-09-25T06:58:44.146Z,42.19
2022-09-25T07:03:50.093Z,39.63
2022-09-25T07:08:57.193Z,38.02
2022-09-25T07:14:03.541Z,35.51
2022-09-25T07:19:41.061Z,34.18
2022-09-25T07:24:48.357Z,32.95
2022-09-25T07:29:55.160Z,31.62
2022-09-25T07:35:01.589Z,30.79
2022-09-25T07:40:12.745Z,29.95
2022-09-25T07:45:18.937Z,29.27
2022-09-25T07:50:25.073Z,28.64
2022-09-25T07:55:30.942Z,28.49
2022-09-25T08:00:36.772Z,29.30
2022-09-25T08:05:43.210Z,28.56
2022-09-25T08:11:02.170Z,28.11
2022-09-25T08:16:42.026Z,27.51
2022-09-25T08:21:55.937Z,26.60
2022-09-25T08:27:01.707Z,25.97
2022-09-25T08:32:49.204Z,24.88
2022-09-25T08:39:20.633Z,24.51
2022-09-25T08:51:21.443Z,23.88
2022-09-25T08:56:29.468Z,23.94
2022-09-25T09:01:46.309Z,23.74
2022-09-25T09:07:25.022Z,24.02
2022-09-25T09:12:34.292Z,23.75
2022-09-25T09:17:43.506Z,22.79
2022-09-25T09:22:53.218Z,23.28
2022-09-25T09:28:30.383Z,24.09
2022-09-25T09:35:04.186Z,23.45
2022-09-25T09:40:47.319Z,22.83
2022-09-25T09:45:59.175Z,22.59
2022-09-25T09:51:11.239Z,22.75
2022-09-25T09:56:22.952Z,22.70
2022-09-25T10:01:42.002Z,23.40
2022-09-25T10:06:51.225Z,23.83
2022-09-25T10:12:01.980Z,24.35
2022-09-25T10:17:12.656Z,25.38
2022-09-25T10:22:21.646Z,25.18
2022-09-25T10:27:35.870Z,24.84
2022-09-25T10:32:57.211Z,25.08
2022-09-25T10:38:05.038Z,25.17
2022-09-25T10:43:24.205Z,26.10
2022-09-25T10:48:52.116Z,26.78
2022-09-25T10:54:13.537Z,26.42
2022-09-25T10:59:23.588Z,26.76
2022-09-25T11:04:32.216Z,27.12
2022-09-25T11:09:44.959Z,27.80
2022-09-25T11:14:58.265Z,29.27
2022-09-25T11:20:27.665Z,29.34
2022-09-25T11:25:42.064Z,28.35
2022-09-25T11:30:54.270Z,29.17
2022-09-25T11:36:06.125Z,31.59
2022-09-25T11:41:23.402Z,30.30
2022-09-25T11:46:39.369Z,30.11
2022-09-25T11:52:28.264Z,31.24
2022-09-25T11:57:45.935Z,31.77
2022-09-25T12:03:07.412Z,31.41
2022-09-25T12:08:27.072Z,31.09
2022-09-25T12:13:44.715Z,32.54
2022-09-25T12:19:13.054Z,33.91
2022-09-25T12:24:35.463Z,32.19
2022-09-25T12:29:58.007Z,32.29
2022-09-25T12:35:28.376Z,33.64
2022-09-25T12:40:38.903Z,33.95
2022-09-25T12:45:49.376Z,34.16
2022-09-25T12:51:05.394Z,34.65
2022-09-25T12:56:16.334Z,34.99
2022-09-25T13:01:28.118Z,35.63
2022-09-25T13:06:47.944Z,35.51
2022-09-25T13:12:00.484Z,35.38
2022-09-25T13:17:10.545Z,36.05
2022-09-25T13:22:21.811Z,36.85
2022-09-25T13:27:35.361Z,36.96
2022-09-25T13:32:50.867Z,37.44
2022-09-25T13:38:09.675Z,37.98
2022-09-25T13:43:26.833Z,38.28
2022-09-25T13:48:37.755Z,39.14
2022-09-25T13:53:52.001Z,39.72
2022-09-25T13:59:20.390Z,40.06
2022-09-25T14:04:39.183Z,40.41
2022-09-25T14:09:49.974Z,40.82
2022-09-25T14:15:01.326Z,41.28
2022-09-25T14:20:27.903Z,41.00
2022-09-25T14:25:40.612Z,41.74
2022-09-25T14:31:08.638Z,42.88
2022-09-25T14:36:27.874Z,42.88
2022-09-25T14:41:52.949Z,43.12
2022-09-25T14:46:59.292Z,43.55
2022-09-25T14:52:09.507Z,45.14
2022-09-25T14:57:25.572Z,46.18
2022-09-25T15:02:36.929Z,46.18
2022-09-25T15:07:46.363Z,46.06
2022-09-25T15:12:53.258Z,46.07
2022-09-25T15:18:02.467Z,46.59
2022-09-25T15:23:15.314Z,46.85
2022-09-25T15:28:25.270Z,47.30
2022-09-25T15:33:34.072Z,49.14
2022-09-25T15:38:40.918Z,50.04
2022-09-25T15:43:47.023Z,51.46
2022-09-25T15:48:56.227Z,54.02
2022-09-25T15:54:04.141Z,55.19
2022-09-25T15:59:20.079Z,56.14
2022-09-25T16:04:39.215Z,57.02
2022-09-25T16:09:48.400Z,58.55
2022-09-25T16:14:56.238Z,59.54
2022-09-25T16:20:05.765Z,60.53
2022-09-25T16:25:22.119Z,61.42
2022-09-25T16:30:28.064Z,62.17
2022-09-25T16:36:05.254Z,62.78
2022-09-25T16:41:07.539Z,63.64
2022-09-25T16:46:18.486Z,64.19
2022-09-25T16:51:30.191Z,64.63
2022-09-25T16:56:36.222Z,65.09
2022-09-25T17:01:42.204Z,65.47
2022-09-25T17:06:48.620Z,65.94
2022-09-25T17:11:59.320Z,66.45
2022-09-25T17:17:05.087Z,66.81
2022-09-25T17:22:11.732Z,67.54
2022-09-25T17:27:18.146Z,68.44
2022-09-25T17:32:24.045Z,69.11
2022-09-25T17:37:29.940Z,69.44
2022-09-25T17:42:36.025Z,69.54
2022-09-25T17:47:42.245Z,69.73
2022-09-25T17:52:48.262Z,69.84
2022-09-25T17:57:54.097Z,69.95
2022-09-25T18:02:59.882Z,70.09
2022-09-25T18:08:06.178Z,70.14
2022-09-25T18:13:15.355Z,70.20
2022-09-25T18:18:21.346Z,70.49
2022-09-25T18:23:28.097Z,70.87
2022-09-25T18:28:34.260Z,71.71
2022-09-25T18:33:42.270Z,72.36
2022-09-25T18:38:51.475Z,73.01
2022-09-25T18:43:58.051Z,73.66
2022-09-25T18:49:04.004Z,74.04
2022-09-25T18:54:14.437Z,74.42
2022-09-25T18:59:20.572Z,74.79
2022-09-25T19:04:26.791Z,74.96
2022-09-25T19:09:32.676Z,75.34
2022-09-25T19:14:38.669Z,75.40
2022-09-25T19:19:45.044Z,75.66
2022-09-25T19:33:34.528Z,76.26
2022-09-25T19:38:40.625Z,76.36
2022-09-25T19:43:46.693Z,76.37
2022-09-25T19:48:52.565Z,76.18
2022-09-25T19:53:58.365Z,76.09
2022-09-25T19:59:05.655Z,76.10
2022-09-25T20:04:18.011Z,75.98
2022-09-25T20:09:26.942Z,75.73
2022-09-25T20:14:32.798Z,75.70
2022-09-25T20:19:38.751Z,75.87
2022-09-25T20:24:44.579Z,76.18
2022-09-25T20:29:50.472Z,76.36
2022-09-25T20:34:56.329Z,76.57
2022-09-25T20:40:02.581Z,76.83
2022-09-25T20:45:10.144Z,77.31
2022-09-25T20:50:16.608Z,77.76
2022-09-25T20:55:22.656Z,78.28
2022-09-25T21:00:29.273Z,78.45
2022-09-25T21:05:39.566Z,78.65
2022-09-25T21:10:45.811Z,78.86
2022-09-25T21:15:52.001Z,79.20
2022-09-25T21:21:01.886Z,79.33
2022-09-25T21:26:13.566Z,79.41
2022-09-25T21:31:22.299Z,79.45
2022-09-25T21:36:29.524Z,79.58
2022-09-25T21:41:35.781Z,79.82
2022-09-25T21:46:41.788Z,80.30
2022-09-25T21:51:48.419Z,80.73
2022-09-25T21:56:54.447Z,80.81
2022-09-25T22:02:00.256Z,80.79
2022-09-25T22:07:06.661Z,80.70
2022-09-25T22:12:12.367Z,80.66
2022-09-25T22:17:18.486Z,80.88
2022-09-25T22:22:24.402Z,80.89
2022-09-25T22:27:30.286Z,81.03
2022-09-25T22:32:36.630Z,81.08
2022-09-25T22:37:42.495Z,81.20
2022-09-25T22:42:48.483Z,81.43
2022-09-25T22:47:54.431Z,81.52
2022-09-25T22:53:00.172Z,81.68
2022-09-25T22:58:06.075Z,81.90
2022-09-25T23:03:12.227Z,81.98
2022-09-25T23:08:18.171Z,82.20
2022-09-25T23:13:24.212Z,82.36
2022-09-25T23:18:33.570Z,82.33
2022-09-25T23:23:39.607Z,82.31
2022-09-25T23:28:45.316Z,82.49
2022-09-25T23:33:51.408Z,82.61
2022-09-25T23:38:59.183Z,82.78
2022-09-25T23:44:10.372Z,82.96
2022-09-25T23:49:16.477Z,82.97
2022-09-25T23:54:22.997Z,83.09
2022-09-25T23:59:29.158Z,83.12
